Friday, July 01, 2016
04:25 UTC
  |  Log In   |  Register Free
Airport Search:

Kingsville Nas Airport
(KNQI)

FAA data valid effective May 26 2016 - Jul 21 2016 (unless otherwise noted).

 
 
 
 
 
 
 
 
 
 
 
 
 
 
Current Aviation Weather for KNQI

Weather Summary


The most recent METAR observation for NQI was updated at: 12:56 UTC
METAR for KNQI is not available. Closest METAR is for KRBO
KNQI  (most recent observation was updatred at 10:35 UTC)
010356Z 12005KT 10SM CLR 26/25 A2994 RMK AO2 SLP133 T02560250 $

KRBO  (17.5 nm SW)   (most recent observation was updated at 10:41 UTC)
010410Z AUTO 17004KT 10SM CLR 27/25 A2994 RMK AO2 T02670250

KALI  (18.2 nm SE)   (most recent observation was updated at 10:35 UTC)
010353Z AUTO 13003KT 10SM CLR 26/23 A2994 RMK AO2 SLP136 T02560233

TAF for KNQI is not available.
KNQI
3023/0123 13011KT 9999 VCTS FEW040CB SCT055 BKN250 QNH2986INS FM010100 13006KT 9999 FEW BKN250 QNH2988INS BECMG 0104/0106 VRB05KT 9999 FEW020 SCT250 QNH2992INS FM011000 VRB04KT 9000 BR FEW012 SCT250 QNH2994INS TEMPO 0111/0113 6000 BR SCT010 SCT250 FM011400 17005KT 9999 SCT025 SCT250 QNH2997INS FM011900 14014G22KT 9999 SCT040 SCT055 BKN250 QNH2985INS AUTOMATED SENSOR METWATCH 0705 TIL 0712 T23/0111Z T36/0120Z FN20042

KALI  (18.2 nm SE)   (most recent observation was updatred at 30:23 UTC)
302324Z 0100/0124 14010KT P6SM FEW050 BKN250 FM010600 VRB03KT P6SM SCT015 TEMPO 0110/0113 5SM BR BKN018 FM011500 17007KT P6SM SCT025 FM012100 13014KT P6SM BKN060


KCRP  (22.8 nm SW)   (most recent observation was updatred at 30:23 UTC)
302324Z 0100/0124 14010KT P6SM SCT035 BKN250 FM010600 VRB03KT P6SM SCT015 TEMPO 0113/0115 BKN015 FM011600 16012KT P6SM SCT025 FM012000 13014KT P6SM SCT035
GlobalAir.com is loading additional information.
 Current Weather at NQI
79.0 F° (26.1 C°)

Southeast winds at 5.8 mph
Pressure:
29.92 in
Humidity:
94%
Wind:
Southeast at 5.8 mph
Dew Point:
77.0 F° (25.0 C°)
Visibility:
10.00 mi
NQI NOAA Radar




Find All Airport Services Find A Hotel Find A Rental Car Find A Golf Course Find A Restaurant $100 Hamburger



Airport Weather Forecast for KNQI

Translated METAR for KNQI (0356 UTC)
METAR:
KNQI 010356Z 12005KT 10SM CLR 26/25 A2994 RMK AO2 SLP133 T02560250 $
Conditions at:
KNQI (Kingsville Nas, TX) observed 0356 UTC 01 July 2016
Temperature:
26°C (78.8°F)
Dewpoint:
25°C (77°F) [RH = 94.2]
Pressure:
29.94 inches Hg (1013.9 mb)
pressure at sea level is 133 in Hg
Winds:
from the ESE (120 degrees) at 5.8 mph (5 knots: 2.6 m/s)
Visibility:
10 mile(s)
Ceiling:
at least 12,000 feet AGL
Clouds:
Clear below 12,000 feet AGL
Remarks:
SOME DATA ABOVE MAY BE INACCURATE!!!
"$" is an indication the sensor requires maintenance
site is automated and HAS a precipitation sensor

FBO's on the Field
FBO Company Facility Photos Services Transportation Aviation Fuel Prices: Prices include tax
Catering Weather Repair Courtesy Rental Type 100LL JetA JetA+ MOGAS 8087
 
Add another FBO Facility Photos Catering Weather Repair Courtesy Rental Type 100LL JetA JetA+ MOGAS 8087
Services Transportation Aviation Fuel Prices: Prices include tax
There are no FBO's currently reporting fuel at NQI. List your FBO now


model-print
model-print
model-print
model-print